createdAt,value
2022-11-05T00:01:49.088Z,34.23
2022-11-05T00:04:34.521Z,38.60
2022-11-05T00:07:26.008Z,37.87
2022-11-05T00:10:03.701Z,41.13
2022-11-05T00:12:57.848Z,36.20
2022-11-05T00:15:43.191Z,36.40
2022-11-05T00:18:11.322Z,41.67
2022-11-05T00:20:39.340Z,32.40
2022-11-05T00:23:25.838Z,35.43
2022-11-05T00:26:00.100Z,35.53
2022-11-05T00:28:29.645Z,33.00
2022-11-05T00:31:02.166Z,30.60
2022-11-05T00:33:30.464Z,43.60
2022-11-05T00:35:58.597Z,36.30
2022-11-05T00:38:27.493Z,37.60
2022-11-05T00:40:55.625Z,37.87
2022-11-05T00:43:42.521Z,32.93
2022-11-05T00:46:10.694Z,42.40
2022-11-05T00:48:56.150Z,36.37
2022-11-05T00:51:24.526Z,39.90
2022-11-05T00:53:52.660Z,35.80
2022-11-05T00:56:20.716Z,37.10
2022-11-05T00:58:50.165Z,35.80
2022-11-05T01:01:18.631Z,53.17
2022-11-05T01:03:51.524Z,34.63
2022-11-05T01:06:20.066Z,29.23
2022-11-05T01:08:48.136Z,36.10
2022-11-05T01:11:33.488Z,37.90
2022-11-05T01:14:05.195Z,53.07
2022-11-05T01:16:33.509Z,42.33
2022-11-05T01:19:02.597Z,41.03
2022-11-05T01:21:30.817Z,51.53
2022-11-05T01:23:58.872Z,34.67
2022-11-05T01:26:28.098Z,37.73
2022-11-05T01:28:57.703Z,38.47
2022-11-05T01:31:28.679Z,34.37
2022-11-05T01:33:56.735Z,36.07
2022-11-05T01:36:24.776Z,47.43
2022-11-05T01:38:52.862Z,33.53
2022-11-05T01:41:21.113Z,35.43
2022-11-05T01:43:51.249Z,34.00
2022-11-05T01:46:22.858Z,37.17
2022-11-05T01:48:58.635Z,50.83
2022-11-05T01:51:30.449Z,38.80
2022-11-05T01:54:04.152Z,34.83
2022-11-05T01:56:37.379Z,34.33
2022-11-05T01:59:10.865Z,43.53
2022-11-05T02:01:39.242Z,44.67
2022-11-05T02:04:12.956Z,38.93
2022-11-05T02:06:46.292Z,37.10
2022-11-05T02:09:20.078Z,44.73
2022-11-05T02:11:48.749Z,45.37
2022-11-05T02:14:16.842Z,42.27
2022-11-05T02:16:50.054Z,46.30
2022-11-05T02:19:45.782Z,44.50
2022-11-05T02:23:01.288Z,51.57
2022-11-05T02:26:00.569Z,37.33
2022-11-05T02:28:50.213Z,42.77
2022-11-05T02:31:27.800Z,43.07
2022-11-05T02:34:04.584Z,46.17
2022-11-05T02:36:45.421Z,46.63
2022-11-05T02:39:28.885Z,50.47
2022-11-05T02:42:05.936Z,42.77
2022-11-05T02:44:41.495Z,42.80
2022-11-05T02:47:21.423Z,48.17
2022-11-05T02:49:55.414Z,49.83
2022-11-05T02:52:30.221Z,49.23
2022-11-05T02:55:04.363Z,54.50
2022-11-05T02:57:36.778Z,54.73
2022-11-05T03:00:07.583Z,50.00
2022-11-05T03:02:37.459Z,44.67
2022-11-05T03:05:06.430Z,41.53
2022-11-05T03:07:44.883Z,55.13
2022-11-05T03:10:32.976Z,52.40
2022-11-05T03:13:09.423Z,57.03
2022-11-05T03:15:50.821Z,54.30
2022-11-05T03:18:27.630Z,53.37
2022-11-05T03:21:04.475Z,62.80
2022-11-05T03:23:37.428Z,58.17
2022-11-05T03:26:12.104Z,55.00
2022-11-05T03:28:44.361Z,72.07
2022-11-05T03:31:14.630Z,64.23
2022-11-05T03:33:46.649Z,57.53
2022-11-05T03:36:20.630Z,58.13
2022-11-05T03:38:53.035Z,65.20
2022-11-05T03:41:23.763Z,49.43
2022-11-05T03:43:56.060Z,51.60
2022-11-05T03:46:29.243Z,63.20
2022-11-05T03:49:02.468Z,57.07
2022-11-05T03:51:37.968Z,57.10
2022-11-05T03:54:06.978Z,58.73
2022-11-05T03:56:39.519Z,64.27
2022-11-05T03:59:10.421Z,59.87
2022-11-05T04:01:39.064Z,65.00
2022-11-05T04:04:09.413Z,57.00
2022-11-05T04:06:54.915Z,50.37
2022-11-05T04:09:40.375Z,64.83
2022-11-05T04:12:27.261Z,58.00
2022-11-05T04:14:55.313Z,66.07
2022-11-05T04:17:22.482Z,62.57
2022-11-05T04:20:09.327Z,68.20
2022-11-05T04:22:54.849Z,55.83
2022-11-05T04:25:24.055Z,54.00
2022-11-05T04:27:52.423Z,58.43
2022-11-05T04:30:20.574Z,60.13
2022-11-05T04:33:04.904Z,59.00
2022-11-05T04:35:36.286Z,63.60
2022-11-05T04:38:04.963Z,60.47
2022-11-05T04:40:33.552Z,54.27
2022-11-05T04:43:02.008Z,58.50
2022-11-05T04:45:33.096Z,56.10
2022-11-05T04:48:01.231Z,59.50
2022-11-05T04:50:29.811Z,62.40
2022-11-05T04:52:59.961Z,57.43
2022-11-05T04:55:28.515Z,66.13
2022-11-05T04:57:56.987Z,59.40
2022-11-05T05:00:25.619Z,55.43
2022-11-05T05:02:53.743Z,60.00
2022-11-05T05:05:23.146Z,73.53
2022-11-05T05:07:51.245Z,68.43
2022-11-05T05:10:20.850Z,66.80
2022-11-05T05:12:48.907Z,62.97
2022-11-05T05:15:17.179Z,70.93
2022-11-05T05:17:45.280Z,70.30
2022-11-05T05:20:30.857Z,60.13
2022-11-05T05:22:58.916Z,61.30
2022-11-05T05:25:28.681Z,60.90
2022-11-05T05:27:58.444Z,63.90
2022-11-05T05:30:27.017Z,60.40
2022-11-05T05:32:55.185Z,53.47
2022-11-05T05:35:23.235Z,55.90
2022-11-05T05:37:56.094Z,55.07
2022-11-05T05:40:24.244Z,59.03
2022-11-05T05:42:56.358Z,56.77
2022-11-05T05:45:24.411Z,54.73
2022-11-05T05:47:52.528Z,58.20
2022-11-05T05:50:20.623Z,56.10
2022-11-05T05:52:49.139Z,67.07
2022-11-05T05:55:17.322Z,58.47
2022-11-05T05:57:45.370Z,61.03
2022-11-05T06:00:16.033Z,57.93
2022-11-05T06:02:44.307Z,62.97
2022-11-05T06:05:12.486Z,55.47
2022-11-05T06:07:40.593Z,59.67
2022-11-05T06:10:09.293Z,53.10
2022-11-05T06:12:37.763Z,51.57
2022-11-05T06:15:07.042Z,52.33
2022-11-05T06:17:36.510Z,52.83
2022-11-05T06:20:04.939Z,47.10
2022-11-05T06:22:33.184Z,45.13
2022-11-05T06:25:01.482Z,57.47
2022-11-05T06:27:30.111Z,59.00
2022-11-05T06:29:58.215Z,54.73
2022-11-05T06:32:26.459Z,50.27
2022-11-05T06:34:55.967Z,51.10
2022-11-05T06:37:24.049Z,40.90
2022-11-05T06:39:52.176Z,47.03
2022-11-05T06:42:20.289Z,50.37
2022-11-05T06:44:48.964Z,44.50
2022-11-05T06:47:17.177Z,40.87
2022-11-05T06:49:45.285Z,48.93
2022-11-05T06:52:15.815Z,52.73
2022-11-05T06:54:45.018Z,48.90
2022-11-05T06:57:14.267Z,45.07
2022-11-05T06:59:42.695Z,37.13
2022-11-05T07:02:13.077Z,46.60
2022-11-05T07:04:41.133Z,52.23
2022-11-05T07:07:09.142Z,41.10
2022-11-05T07:09:40.711Z,47.10
2022-11-05T07:12:09.159Z,41.20
2022-11-05T07:14:37.235Z,43.17
2022-11-05T07:17:05.548Z,48.60
2022-11-05T07:19:33.661Z,44.13
2022-11-05T07:22:01.723Z,42.87
2022-11-05T07:24:30.207Z,41.90
2022-11-05T07:26:59.672Z,37.57
2022-11-05T07:29:27.790Z,46.20
2022-11-05T07:31:55.888Z,35.23
2022-11-05T07:34:24.027Z,37.87
2022-11-05T07:36:52.073Z,51.63
2022-11-05T07:39:20.170Z,42.87
2022-11-05T07:41:48.312Z,42.13
2022-11-05T07:44:17.822Z,51.83
2022-11-05T07:46:45.893Z,40.10
2022-11-05T07:49:13.966Z,45.73
2022-11-05T07:51:42.047Z,45.93
2022-11-05T07:54:10.172Z,40.03
2022-11-05T07:56:38.900Z,35.77
2022-11-05T07:59:08.225Z,40.30
2022-11-05T08:01:37.836Z,42.43
2022-11-05T08:04:06.184Z,43.87
2022-11-05T08:06:34.275Z,42.07
2022-11-05T08:09:02.301Z,47.63
2022-11-05T08:11:30.337Z,58.53
2022-11-05T08:13:58.473Z,39.97
2022-11-05T08:16:26.524Z,45.90
2022-11-05T08:18:55.994Z,42.53
2022-11-05T08:21:24.560Z,38.73
2022-11-05T08:23:52.607Z,42.77
2022-11-05T08:26:20.775Z,37.73
2022-11-05T08:28:48.803Z,39.43
2022-11-05T08:31:18.187Z,34.50
2022-11-05T08:33:46.299Z,39.30
2022-11-05T08:36:15.895Z,48.90
2022-11-05T08:38:43.976Z,51.87
2022-11-05T08:41:12.139Z,38.10
2022-11-05T08:43:40.189Z,40.07
2022-11-05T08:46:08.267Z,39.10
2022-11-05T08:48:36.423Z,47.27
2022-11-05T08:51:04.495Z,36.87
2022-11-05T08:53:33.923Z,41.30
2022-11-05T08:56:01.994Z,48.63
2022-11-05T08:58:30.946Z,45.40
2022-11-05T09:01:04.546Z,45.83
2022-11-05T09:03:33.138Z,38.97
2022-11-05T09:06:01.194Z,37.03
2022-11-05T09:08:29.318Z,42.20
2022-11-05T09:10:58.792Z,46.53
2022-11-05T09:13:27.293Z,42.47
2022-11-05T09:15:55.589Z,49.73
2022-11-05T09:18:23.777Z,41.23
2022-11-05T09:20:51.835Z,49.60
2022-11-05T09:23:20.009Z,48.03
2022-11-05T09:25:48.661Z,47.47
2022-11-05T09:28:20.327Z,42.87
2022-11-05T09:30:50.425Z,48.50
2022-11-05T09:33:20.002Z,41.70
2022-11-05T09:35:48.739Z,40.10
2022-11-05T09:38:17.270Z,48.90
2022-11-05T09:40:55.387Z,46.13
2022-11-05T09:43:31.786Z,43.70
2022-11-05T09:46:04.765Z,36.40
2022-11-05T09:48:35.560Z,38.70
2022-11-05T09:51:05.906Z,36.07
2022-11-05T09:53:38.338Z,44.90
2022-11-05T09:56:15.737Z,38.30
2022-11-05T09:58:50.315Z,32.50
2022-11-05T10:01:24.008Z,34.57
2022-11-05T10:03:55.899Z,36.00
2022-11-05T10:06:27.636Z,36.03
2022-11-05T10:09:03.540Z,39.83
2022-11-05T10:11:37.889Z,36.77
2022-11-05T10:14:16.113Z,33.63
2022-11-05T10:16:50.033Z,43.97
2022-11-05T10:19:24.555Z,31.77
2022-11-05T10:22:11.464Z,35.03
2022-11-05T10:24:42.899Z,34.57
2022-11-05T10:27:16.537Z,43.50
2022-11-05T10:29:46.515Z,40.30
2022-11-05T10:32:22.968Z,44.60
2022-11-05T10:34:51.725Z,36.67
2022-11-05T10:37:21.726Z,38.63
2022-11-05T10:39:50.410Z,31.90
2022-11-05T10:42:37.474Z,34.13
2022-11-05T10:45:15.286Z,35.27
2022-11-05T10:47:55.475Z,38.47
2022-11-05T10:50:26.873Z,32.03
2022-11-05T10:52:59.228Z,39.93
2022-11-05T10:55:30.333Z,36.60
2022-11-05T10:58:10.087Z,37.23
2022-11-05T11:00:39.721Z,29.33
2022-11-05T11:03:35.715Z,37.47
2022-11-05T11:06:07.741Z,33.30
2022-11-05T11:08:37.877Z,41.43
2022-11-05T11:11:09.053Z,46.60
2022-11-05T11:14:00.510Z,34.83
2022-11-05T11:16:38.449Z,40.33
2022-11-05T11:19:25.569Z,34.97
2022-11-05T11:22:21.700Z,46.40
2022-11-05T11:24:53.975Z,37.97
2022-11-05T11:27:28.736Z,31.87
2022-11-05T11:29:59.747Z,29.63
2022-11-05T11:32:35.020Z,48.40
2022-11-05T11:35:04.008Z,33.50
2022-11-05T11:37:35.734Z,32.37
2022-11-05T11:40:10.030Z,40.73
2022-11-05T11:42:42.247Z,30.83
2022-11-05T11:45:19.119Z,38.63
2022-11-05T11:47:50.679Z,30.33
2022-11-05T11:50:37.679Z,35.17
2022-11-05T11:53:30.166Z,35.33
2022-11-05T11:56:01.066Z,48.20
2022-11-05T11:58:41.803Z,38.47
2022-11-05T12:01:49.041Z,39.53
2022-11-05T12:04:37.952Z,36.67
2022-11-05T12:07:24.409Z,33.60
2022-11-05T12:10:04.577Z,29.50
2022-11-05T12:12:42.958Z,34.00
2022-11-05T12:15:29.804Z,33.60
2022-11-05T12:18:03.040Z,34.50
2022-11-05T12:20:48.164Z,34.17
2022-11-05T12:23:48.395Z,39.63
2022-11-05T12:26:24.762Z,31.87
2022-11-05T12:29:25.687Z,34.40
2022-11-05T12:32:07.767Z,39.07
2022-11-05T12:34:51.085Z,33.10
2022-11-05T12:37:31.897Z,36.93
2022-11-05T12:40:30.518Z,33.93
2022-11-05T12:43:11.899Z,28.07
2022-11-05T12:45:46.940Z,28.90
2022-11-05T12:48:37.299Z,39.53
2022-11-05T12:51:18.238Z,34.13
2022-11-05T12:54:02.756Z,32.33
2022-11-05T12:56:36.398Z,30.27
2022-11-05T12:59:11.955Z,45.53
2022-11-05T13:01:44.632Z,38.07
2022-11-05T13:04:22.061Z,30.30
2022-11-05T13:06:56.227Z,35.67
2022-11-05T13:09:30.229Z,29.77
2022-11-05T13:12:01.358Z,36.40
2022-11-05T13:14:34.067Z,33.80
2022-11-05T13:17:04.498Z,34.83
2022-11-05T13:19:37.814Z,41.53
2022-11-05T13:22:14.639Z,36.00
2022-11-05T13:24:50.561Z,44.40
2022-11-05T13:27:40.386Z,37.10
2022-11-05T13:30:25.959Z,38.57
2022-11-05T13:32:59.323Z,42.53
2022-11-05T13:35:32.260Z,38.77
2022-11-05T13:38:24.234Z,33.10
2022-11-05T13:41:07.595Z,43.53
2022-11-05T13:44:03.701Z,37.93
2022-11-05T13:46:46.611Z,34.60
2022-11-05T13:49:41.027Z,41.47
2022-11-05T13:52:33.979Z,35.53
2022-11-05T13:55:25.420Z,39.93
2022-11-05T13:58:37.318Z,41.97
2022-11-05T14:01:18.630Z,55.93
2022-11-05T14:03:49.016Z,34.10
2022-11-05T14:06:26.213Z,52.10
2022-11-05T14:09:00.825Z,47.27
2022-11-05T14:11:33.060Z,42.37
2022-11-05T14:14:05.524Z,46.43
2022-11-05T14:16:48.944Z,49.07
2022-11-05T14:19:34.127Z,47.00
2022-11-05T14:22:38.798Z,45.53
2022-11-05T14:25:43.844Z,40.47
2022-11-05T14:28:45.195Z,48.47
2022-11-05T14:31:54.434Z,45.70
2022-11-05T14:34:23.950Z,53.13
2022-11-05T14:37:22.885Z,43.23
2022-11-05T14:39:51.493Z,53.40
2022-11-05T14:42:24.363Z,57.40
2022-11-05T14:45:23.789Z,55.43
2022-11-05T14:47:55.847Z,59.13
2022-11-05T14:50:32.189Z,68.90
2022-11-05T14:53:08.074Z,65.43
2022-11-05T14:55:40.376Z,68.77
2022-11-05T14:58:27.917Z,80.33
2022-11-05T15:00:56.896Z,95.63
2022-11-05T15:04:00.408Z,76.83
2022-11-05T15:06:33.369Z,78.20
2022-11-05T15:09:28.003Z,65.80
2022-11-05T15:12:05.397Z,67.40
2022-11-05T15:14:37.599Z,71.13
2022-11-05T15:17:16.824Z,75.50
2022-11-05T15:19:45.923Z,70.67
2022-11-05T15:22:27.592Z,75.40
2022-11-05T15:24:56.844Z,84.27
2022-11-05T15:27:45.089Z,77.87
2022-11-05T15:30:17.830Z,81.50
2022-11-05T15:32:46.331Z,72.87
2022-11-05T15:35:23.580Z,92.83
2022-11-05T15:38:00.366Z,73.37
2022-11-05T15:40:32.067Z,81.57
2022-11-05T15:43:10.743Z,78.90
2022-11-05T15:45:40.233Z,69.57
2022-11-05T15:48:15.901Z,73.13
2022-11-05T15:50:44.034Z,75.30
2022-11-05T15:56:23.071Z,77.17
2022-11-05T15:58:54.046Z,81.50
2022-11-05T16:01:28.013Z,79.40
2022-11-05T16:03:58.406Z,77.30
2022-11-05T16:06:31.149Z,84.00
2022-11-05T16:09:00.731Z,88.17
2022-11-05T16:11:29.074Z,77.47
2022-11-05T16:14:16.061Z,77.37
2022-11-05T16:16:45.144Z,83.17
2022-11-05T16:19:40.893Z,88.23
2022-11-05T16:22:09.342Z,77.20
2022-11-05T16:24:38.949Z,71.73
2022-11-05T16:27:07.599Z,79.57
2022-11-05T16:29:37.661Z,77.93
2022-11-05T16:32:14.598Z,78.70
2022-11-05T16:34:46.799Z,78.10
2022-11-05T16:37:16.987Z,83.67
2022-11-05T16:39:46.465Z,77.40
2022-11-05T16:42:40.677Z,86.07
2022-11-05T16:45:11.761Z,78.27
2022-11-05T16:47:39.834Z,78.33
2022-11-05T16:50:17.084Z,73.67
2022-11-05T16:52:45.877Z,81.60
2022-11-05T16:55:16.413Z,79.93
2022-11-05T16:57:46.649Z,79.83
2022-11-05T17:00:17.826Z,82.70
2022-11-05T17:02:46.693Z,90.00
2022-11-05T17:05:23.210Z,82.20
2022-11-05T17:07:51.703Z,79.23
2022-11-05T17:10:21.706Z,80.47
2022-11-05T17:12:50.268Z,73.37
2022-11-05T17:15:24.565Z,77.73
2022-11-05T17:17:53.954Z,82.20
2022-11-05T17:20:36.553Z,81.70
2022-11-05T17:23:07.962Z,78.30
2022-11-05T17:25:37.736Z,79.80
2022-11-05T17:28:06.567Z,93.93
2022-11-05T17:30:34.742Z,98.93
2022-11-05T17:33:02.901Z,87.50
2022-11-05T17:35:31.124Z,94.27
2022-11-05T17:37:59.294Z,105.37
2022-11-05T17:40:28.437Z,97.47
2022-11-05T17:43:00.790Z,94.40
2022-11-05T17:45:29.149Z,94.93
2022-11-05T17:47:57.546Z,90.63
2022-11-05T17:50:25.842Z,89.57
2022-11-05T17:52:53.926Z,82.87
2022-11-05T17:55:22.048Z,92.87
2022-11-05T17:57:51.406Z,87.43
2022-11-05T18:00:22.643Z,93.70
2022-11-05T18:02:51.519Z,100.10
2022-11-05T18:05:20.275Z,92.37
2022-11-05T18:07:49.334Z,99.47
2022-11-05T18:10:18.023Z,99.63
2022-11-05T18:12:46.479Z,106.10
2022-11-05T18:15:15.803Z,114.47
2022-11-05T18:17:47.158Z,104.40
2022-11-05T18:20:19.182Z,110.97
2022-11-05T18:22:49.586Z,103.50
2022-11-05T18:25:18.492Z,115.37
2022-11-05T18:27:46.693Z,120.23
2022-11-05T18:30:16.058Z,112.37
2022-11-05T18:32:46.208Z,108.47
2022-11-05T18:35:15.085Z,108.07
2022-11-05T18:37:43.555Z,106.30
2022-11-05T18:40:14.256Z,122.63
2022-11-05T18:42:42.891Z,106.53
2022-11-05T18:45:12.602Z,106.37
2022-11-05T18:47:41.142Z,110.60
2022-11-05T18:50:11.256Z,118.17
2022-11-05T18:52:39.329Z,103.10
2022-11-05T18:55:08.631Z,104.40
2022-11-05T18:57:36.742Z,115.13
2022-11-05T19:00:06.584Z,109.90
2022-11-05T19:02:34.854Z,111.33
2022-11-05T19:07:52.809Z,116.87
2022-11-05T19:10:21.118Z,124.43
2022-11-05T19:12:49.394Z,118.83
2022-11-05T19:15:17.526Z,128.23
2022-11-05T19:17:45.720Z,116.20
2022-11-05T19:20:14.364Z,130.27
2022-11-05T19:22:42.497Z,145.83
2022-11-05T19:25:11.961Z,135.77
2022-11-05T19:27:41.090Z,127.30
2022-11-05T19:30:10.057Z,131.83
2022-11-05T19:32:38.206Z,130.50
2022-11-05T19:35:06.959Z,125.30
2022-11-05T19:37:35.096Z,131.03
2022-11-05T19:40:03.151Z,120.43
2022-11-05T19:42:32.633Z,138.43
2022-11-05T19:45:22.918Z,122.80
2022-11-05T19:47:48.999Z,125.90
2022-11-05T19:50:17.119Z,118.43
2022-11-05T19:52:45.235Z,115.07
2022-11-05T19:55:13.658Z,115.00
2022-11-05T19:57:43.080Z,125.87
2022-11-05T20:00:12.271Z,107.53
2022-11-05T20:02:40.366Z,125.97
2022-11-05T20:05:09.391Z,127.17
2022-11-05T20:07:37.456Z,125.20
2022-11-05T20:10:06.653Z,121.77
2022-11-05T20:12:35.443Z,116.10
2022-11-05T20:15:05.843Z,126.83
2022-11-05T20:17:33.900Z,121.57
2022-11-05T20:20:02.070Z,124.67
2022-11-05T20:22:30.192Z,143.13
2022-11-05T20:24:58.307Z,143.13
2022-11-05T20:27:26.390Z,132.80
2022-11-05T20:29:54.831Z,121.43
2022-11-05T20:32:24.387Z,117.07
2022-11-05T20:34:52.484Z,115.10
2022-11-05T20:37:20.652Z,117.03
2022-11-05T20:39:48.755Z,123.57
2022-11-05T20:42:17.372Z,136.93
2022-11-05T20:44:45.443Z,127.83
2022-11-05T20:47:13.574Z,131.27
2022-11-05T20:49:43.144Z,139.90
2022-11-05T20:52:12.228Z,126.97
2022-11-05T20:54:40.289Z,134.90
2022-11-05T20:57:08.823Z,126.30
2022-11-05T20:59:36.927Z,134.07
2022-11-05T21:02:05.225Z,151.33
2022-11-05T21:04:33.775Z,146.93
2022-11-05T21:07:03.271Z,137.43
2022-11-05T21:09:31.490Z,148.53
2022-11-05T21:12:12.062Z,156.63
2022-11-05T21:14:41.312Z,142.70
2022-11-05T21:17:11.716Z,142.73
2022-11-05T21:19:40.314Z,141.10
2022-11-05T21:22:09.856Z,138.07
2022-11-05T21:24:37.984Z,144.60
2022-11-05T21:27:06.053Z,151.70
2022-11-05T21:29:35.203Z,141.20
2022-11-05T21:32:03.259Z,142.47
2022-11-05T21:34:31.362Z,141.83
2022-11-05T21:36:59.611Z,137.20
2022-11-05T21:39:29.085Z,144.80
2022-11-05T21:41:57.444Z,148.13
2022-11-05T21:44:25.550Z,145.57
2022-11-05T21:46:57.337Z,146.20
2022-11-05T21:49:25.739Z,139.10
2022-11-05T21:52:11.498Z,151.13
2022-11-05T21:54:58.309Z,142.20
2022-11-05T21:57:55.505Z,147.63
2022-11-05T22:00:23.734Z,142.93
2022-11-05T22:02:52.019Z,139.90
2022-11-05T22:05:20.171Z,145.63
2022-11-05T22:07:48.258Z,144.97
2022-11-05T22:10:17.877Z,144.60
2022-11-05T22:12:46.638Z,153.97
2022-11-05T22:15:15.195Z,134.90
2022-11-05T22:17:46.812Z,148.43
2022-11-05T22:20:16.285Z,140.43
2022-11-05T22:22:44.854Z,151.33
2022-11-05T22:25:14.441Z,145.23
2022-11-05T22:27:44.349Z,151.30
2022-11-05T22:30:14.450Z,139.73
2022-11-05T22:32:42.941Z,139.63
2022-11-05T22:35:11.372Z,125.30
2022-11-05T22:37:39.599Z,137.17
2022-11-05T22:40:08.508Z,132.70
2022-11-05T22:42:36.688Z,134.37
2022-11-05T22:45:07.364Z,129.43
2022-11-05T22:47:35.422Z,139.67
2022-11-05T22:50:03.541Z,130.27
2022-11-05T22:52:32.835Z,127.13
2022-11-05T22:55:02.717Z,119.07
2022-11-05T22:57:31.238Z,125.93
2022-11-05T22:59:59.346Z,142.03
2022-11-05T23:02:28.882Z,125.83
2022-11-05T23:04:57.112Z,120.60
2022-11-05T23:07:42.544Z,118.70
2022-11-05T23:10:28.550Z,117.23
2022-11-05T23:12:57.048Z,117.80
2022-11-05T23:15:42.761Z,125.37
2022-11-05T23:18:29.753Z,120.63
2022-11-05T23:21:19.268Z,113.77
2022-11-05T23:24:06.305Z,119.87
2022-11-05T23:26:51.479Z,113.63
2022-11-05T23:29:20.447Z,115.73
2022-11-05T23:32:21.238Z,114.47
2022-11-05T23:34:50.902Z,122.13
2022-11-05T23:37:36.824Z,124.53
2022-11-05T23:40:07.170Z,121.43
2022-11-05T23:42:53.184Z,121.23
2022-11-05T23:45:47.400Z,110.87
2022-11-05T23:48:18.937Z,113.53
2022-11-05T23:50:53.099Z,103.20
2022-11-05T23:53:21.405Z,112.13
2022-11-05T23:55:49.542Z,106.80
2022-11-05T23:58:18.434Z,104.87
